Time;durP1;ratioP1;P1;durP2;ratioP2;P2;SDS_P1;SDS_P2;PMS_P1;PMS_P2;Temp;Humidity;BMP_temperature;BMP_pressure;BME280_temperature;BME280_humidity;BME280_pressure;Samples;Min_cycle;Max_cycle;Signal;HPM_P1;HPM_P2
2021/06/14 00:00:22;;;;;;;8.10;4.87;;;20.30;71.80;;;;;;1853493;77;21165;-52
2021/06/14 00:02:51;;;;;;;5.58;4.95;;;20.30;72.00;;;;;;1853551;77;21031;-53
2021/06/14 00:05:38;;;;;;;6.25;5.28;;;20.30;71.80;;;;;;1853617;77;21032;-52
2021/06/14 00:08:10;;;;;;;6.42;5.45;;;20.30;71.20;;;;;;1832195;77;21113;-52
2021/06/14 00:10:42;;;;;;;7.05;5.45;;;20.20;71.20;;;;;;1853587;77;21048;-53
2021/06/14 00:13:13;;;;;;;6.87;4.92;;;20.10;71.70;;;;;;1853739;77;21016;-52
2021/06/14 00:15:43;;;;;;;7.28;4.80;;;20.10;72.20;;;;;;1853675;77;21036;-52
2021/06/14 00:18:12;;;;;;;7.42;5.03;;;20.10;72.30;;;;;;1853495;77;21076;-53
2021/06/14 00:20:43;;;;;;;5.50;4.33;;;20.10;71.90;;;;;;1853567;77;21133;-53
2021/06/14 00:23:13;;;;;;;5.55;4.70;;;20.10;72.00;;;;;;1853581;77;21000;-50
2021/06/14 00:25:42;;;;;;;5.33;4.83;;;20.10;72.10;;;;;;1853594;77;21055;-53
2021/06/14 00:28:12;;;;;;;4.87;4.47;;;20.10;72.00;;;;;;1853703;77;21044;-52
2021/06/14 00:30:44;;;;;;;7.87;4.70;;;20.00;72.20;;;;;;1853552;77;21047;-53
2021/06/14 00:33:15;;;;;;;5.30;4.80;;;20.00;72.60;;;;;;1853690;77;21471;-52
2021/06/14 00:35:47;;;;;;;5.03;4.53;;;20.00;72.80;;;;;;1853553;77;21161;-51
2021/06/14 00:38:16;;;;;;;4.95;4.40;;;20.00;72.80;;;;;;1853561;77;21109;-53
2021/06/14 00:40:46;;;;;;;5.08;4.67;;;20.10;72.90;;;;;;1853719;77;21039;-52
2021/06/14 00:43:17;;;;;;;4.80;4.40;;;20.10;72.70;;;;;;1853529;77;21044;-51
2021/06/14 00:45:49;;;;;;;7.35;4.33;;;20.10;72.60;;;;;;1853607;77;21043;-53
2021/06/14 00:48:19;;;;;;;4.78;4.37;;;20.10;72.60;;;;;;1853652;77;21106;-53
2021/06/14 00:50:54;;;;;;;5.45;4.55;;;20.20;72.40;;;;;;1853722;77;21028;-53
2021/06/14 00:53:32;;;;;;;9.65;4.62;;;20.20;72.40;;;;;;1853814;77;21095;-52
2021/06/14 00:56:03;;;;;;;7.72;5.10;;;20.10;72.20;;;;;;1853791;77;21525;-52
2021/06/14 00:58:34;;;;;;;5.05;4.62;;;20.00;71.90;;;;;;1853548;77;21538;-52
2021/06/14 01:01:05;;;;;;;5.28;4.78;;;19.90;71.90;;;;;;1853543;77;21102;-53
2021/06/14 01:03:34;;;;;;;5.35;4.85;;;19.80;72.20;;;;;;1853771;77;21106;-52
2021/06/14 01:06:06;;;;;;;6.05;5.05;;;19.70;72.60;;;;;;1853696;77;21133;-53
2021/06/14 01:08:39;;;;;;;5.83;5.22;;;19.70;72.60;;;;;;1853663;77;21094;-53
2021/06/14 01:11:13;;;;;;;8.20;6.58;;;19.60;72.40;;;;;;1853544;77;21052;-52
2021/06/14 01:14:21;;;;;;;7.55;6.83;;;19.50;72.40;;;;;;1851931;77;21474;-52
2021/06/14 01:17:16;;;;;;;6.58;5.97;;;19.40;72.80;;;;;;1852999;76;21056;-52
2021/06/14 01:19:54;;;;;;;6.80;6.10;;;19.40;73.20;;;;;;1856344;77;21055;-53
2021/06/14 01:22:38;;;;;;;8.30;5.70;;;19.50;73.30;;;;;;1856513;77;21489;-52
2021/06/14 01:25:12;;;;;;;5.47;4.58;;;19.50;73.40;;;;;;1856673;77;21027;-53
2021/06/14 01:27:44;;;;;;;5.20;4.67;;;19.60;73.50;;;;;;1855575;77;21501;-52
2021/06/14 01:30:20;;;;;;;4.83;4.12;;;19.60;73.30;;;;;;1855852;77;21584;-52
2021/06/14 01:32:50;;;;;;;6.03;4.20;;;19.60;73.00;;;;;;1856690;77;21454;-52
2021/06/14 01:35:30;;;;;;;4.83;4.15;;;19.70;72.90;;;;;;1856527;77;21095;-52
2021/06/14 01:38:01;;;;;;;4.70;4.05;;;19.60;72.80;;;;;;1855435;77;21044;-51
2021/06/14 01:40:32;;;;;;;4.65;4.00;;;19.70;72.80;;;;;;1856649;77;21035;-52
2021/06/14 01:43:05;;;;;;;8.15;4.10;;;19.60;72.70;;;;;;1856688;77;21044;-53
2021/06/14 01:45:37;;;;;;;4.25;3.85;;;19.60;72.80;;;;;;1834641;77;21067;-52
2021/06/14 01:48:08;;;;;;;4.72;4.28;;;19.60;72.80;;;;;;1856650;77;21101;-52
2021/06/14 01:50:40;;;;;;;5.65;4.05;;;19.60;72.90;;;;;;1856438;77;21114;-52
2021/06/14 01:53:10;;;;;;;4.97;4.58;;;19.60;72.80;;;;;;1856742;77;21216;-53
2021/06/14 01:55:40;;;;;;;9.88;4.47;;;19.60;72.30;;;;;;1856683;77;21113;-52
2021/06/14 01:58:11;;;;;;;7.50;4.70;;;19.50;72.40;;;;;;1856672;77;21048;-52
2021/06/14 02:00:46;;;;;;;5.05;4.53;;;19.40;72.40;;;;;;1856065;77;21197;-51
2021/06/14 02:03:20;;;;;;;6.35;4.42;;;19.40;72.70;;;;;;1854410;77;21125;-52
2021/06/14 02:05:53;;;;;;;6.95;4.37;;;19.40;72.70;;;;;;1856078;77;21035;-52
2021/06/14 02:08:23;;;;;;;5.28;4.80;;;19.40;72.70;;;;;;1856804;77;21008;-51
2021/06/14 02:10:54;;;;;;;5.12;4.58;;;19.40;72.90;;;;;;1856687;77;21093;-52
2021/06/14 02:13:25;;;;;;;6.78;4.70;;;19.40;72.80;;;;;;1856613;77;21097;-52
2021/06/14 02:15:55;;;;;;;5.22;4.72;;;19.40;72.70;;;;;;1856704;77;21028;-51
2021/06/14 02:18:25;;;;;;;7.80;4.85;;;19.40;72.70;;;;;;1856289;77;21102;-51
2021/06/14 02:20:56;;;;;;;5.58;5.10;;;19.40;73.10;;;;;;1904752;74;21050;-52
2021/06/14 02:23:25;;;;;;;7.67;5.53;;;19.40;73.10;;;;;;1905188;75;21120;-52
2021/06/14 02:25:55;;;;;;;6.00;4.78;;;19.40;73.20;;;;;;1905185;75;21035;-52
2021/06/14 02:28:24;;;;;;;5.80;5.22;;;19.40;73.10;;;;;;1905054;74;21023;-52
2021/06/14 02:30:54;;;;;;;7.90;5.30;;;19.50;73.00;;;;;;1905124;75;21039;-52
2021/06/14 02:33:24;;;;;;;8.00;5.35;;;19.50;72.70;;;;;;1905130;75;21095;-52
2021/06/14 02:36:10;;;;;;;5.87;4.90;;;19.50;72.60;;;;;;1903198;74;21038;-51
2021/06/14 02:38:41;;;;;;;8.10;5.12;;;19.40;72.70;;;;;;1905061;74;21081;-52
2021/06/14 02:41:12;;;;;;;7.30;4.95;;;19.40;73.00;;;;;;1905201;75;21024;-51
2021/06/14 02:43:42;;;;;;;5.55;4.62;;;19.40;73.20;;;;;;1905200;75;21085;-52
2021/06/14 02:46:13;;;;;;;5.03;4.42;;;19.50;73.30;;;;;;1905148;75;21040;-52
2021/06/14 02:48:48;;;;;;;6.00;4.47;;;19.60;73.10;;;;;;1905150;74;21459;-52
2021/06/14 02:51:18;;;;;;;6.27;5.10;;;19.70;72.90;;;;;;1904632;74;21023;-53
2021/06/14 02:54:03;;;;;;;8.68;4.47;;;19.80;72.60;;;;;;1905080;75;21711;-52
2021/06/14 02:56:21;;;;;;;9.40;4.83;;;19.90;72.50;;;;;;1903863;74;21512;-52
2021/06/14 02:58:51;;;;;;;8.55;7.42;;;20.00;72.60;;;;;;1905082;75;21128;-52
2021/06/14 03:01:21;;;;;;;6.87;5.85;;;20.00;72.30;;;;;;1905041;75;21073;-52
2021/06/14 03:03:54;;;;;;;6.15;5.53;;;20.10;72.30;;;;;;1905003;75;21024;-51
2021/06/14 03:06:22;;;;;;;8.48;6.30;;;20.10;72.20;;;;;;1905034;74;21039;-53
2021/06/14 03:08:53;;;;;;;8.38;5.15;;;20.20;72.30;;;;;;1904893;75;21104;-52
2021/06/14 03:11:26;;;;;;;11.50;5.60;;;20.20;72.30;;;;;;1905079;75;21019;-50
2021/06/14 03:13:58;;;;;;;8.23;5.55;;;20.30;72.20;;;;;;1905026;74;21008;-52
2021/06/14 03:16:30;;;;;;;5.58;4.90;;;20.40;72.00;;;;;;1892422;75;21000;-52
2021/06/14 03:19:02;;;;;;;8.20;5.33;;;20.40;72.30;;;;;;1904957;75;21125;-52
2021/06/14 03:21:33;;;;;;;6.42;5.17;;;20.60;71.90;;;;;;1905056;74;21097;-52
2021/06/14 03:24:03;;;;;;;6.00;4.80;;;20.70;72.00;;;;;;1904981;75;21076;-52
2021/06/14 03:26:36;;;;;;;8.58;4.85;;;20.80;71.80;;;;;;1904999;75;20997;-52
2021/06/14 03:29:07;;;;;;;5.47;4.47;;;20.90;71.70;;;;;;1905039;75;21011;-51
2021/06/14 03:31:37;;;;;;;5.15;4.53;;;21.00;71.50;;;;;;1904883;74;21108;-52
2021/06/14 03:34:07;;;;;;;10.15;5.62;;;21.10;71.10;;;;;;1904942;75;20995;-51
2021/06/14 03:36:39;;;;;;;6.53;5.05;;;21.20;70.80;;;;;;1904933;75;21043;-48
2021/06/14 03:39:09;;;;;;;7.50;5.15;;;21.30;70.80;;;;;;1904885;75;21103;-52
2021/06/14 03:41:46;;;;;;;5.90;5.25;;;21.30;70.70;;;;;;1905092;75;21011;-52
2021/06/14 03:44:17;;;;;;;6.45;4.95;;;21.40;70.60;;;;;;1905007;75;21125;-51
2021/06/14 03:46:47;;;;;;;6.42;4.60;;;21.50;70.40;;;;;;1904918;75;21059;-52
2021/06/14 03:49:17;;;;;;;8.88;4.72;;;21.60;70.20;;;;;;1904949;75;21027;-51
2021/06/14 03:51:48;;;;;;;8.70;4.95;;;21.70;70.10;;;;;;1904628;74;21515;-52
2021/06/14 03:54:17;;;;;;;8.53;4.55;;;21.80;70.00;;;;;;1904866;75;21039;-51
2021/06/14 03:56:47;;;;;;;5.60;3.90;;;22.00;69.80;;;;;;1904889;75;21086;-51
2021/06/14 03:59:16;;;;;;;4.17;3.77;;;22.10;69.40;;;;;;1905015;75;21075;-52
2021/06/14 04:01:46;;;;;;;3.87;3.52;;;22.20;68.90;;;;;;1905125;74;21063;-52
2021/06/14 04:04:32;;;;;;;7.65;4.12;;;22.20;68.40;;;;;;1904864;75;21081;-52
2021/06/14 04:06:56;;;;;;;9.03;4.00;;;22.10;67.90;;;;;;1902777;75;21062;-52
2021/06/14 04:09:25;;;;;;;4.62;3.80;;;22.00;68.00;;;;;;1904898;75;21066;-53
2021/06/14 04:11:55;;;;;;;10.72;4.83;;;21.90;67.90;;;;;;1904946;75;21027;-51
2021/06/14 04:14:24;;;;;;;7.60;3.40;;;21.90;68.20;;;;;;1904894;74;21000;-52
2021/06/14 04:16:53;;;;;;;11.70;4.45;;;21.90;68.40;;;;;;1904848;74;21020;-51
2021/06/14 04:19:23;;;;;;;7.85;5.12;;;22.00;68.50;;;;;;1904994;75;21086;-51
2021/06/14 04:21:52;;;;;;;6.78;4.72;;;22.00;68.10;;;;;;1869040;77;21092;-51
2021/06/14 04:24:22;;;;;;;7.80;4.17;;;22.10;67.80;;;;;;1853378;77;21067;-52
2021/06/14 04:26:51;;;;;;;9.18;4.40;;;22.10;67.60;;;;;;1853438;77;21024;-53
2021/06/14 04:29:20;;;;;;;6.67;4.25;;;22.10;67.70;;;;;;1853507;77;21032;-51
2021/06/14 04:31:50;;;;;;;5.72;4.40;;;22.20;68.10;;;;;;1853486;77;21047;-52
2021/06/14 04:34:19;;;;;;;6.62;4.20;;;22.20;68.00;;;;;;1853447;77;21016;-52
2021/06/14 04:36:49;;;;;;;6.42;4.40;;;22.40;67.80;;;;;;1853427;77;21106;-52
2021/06/14 04:39:18;;;;;;;6.83;4.60;;;22.40;67.60;;;;;;1853439;77;21015;-52
2021/06/14 04:41:47;;;;;;;6.95;4.37;;;22.60;67.60;;;;;;1853442;77;21035;-52
2021/06/14 04:44:17;;;;;;;5.35;4.40;;;22.70;67.30;;;;;;1853639;77;21035;-52
2021/06/14 04:46:46;;;;;;;4.10;3.70;;;22.70;67.00;;;;;;1853677;77;21133;-53
2021/06/14 04:49:16;;;;;;;6.28;4.50;;;22.80;66.90;;;;;;1853508;77;21094;-51
2021/06/14 04:51:45;;;;;;;4.67;4.22;;;22.90;66.90;;;;;;1853686;77;21032;-51
2021/06/14 04:54:14;;;;;;;4.78;3.87;;;23.00;66.90;;;;;;1853525;77;21094;-52
2021/06/14 04:56:43;;;;;;;5.28;3.30;;;23.00;66.70;;;;;;1853513;77;21494;-51
2021/06/14 04:59:13;;;;;;;6.67;3.87;;;23.10;66.70;;;;;;1853517;77;21114;-52
2021/06/14 05:01:43;;;;;;;8.78;4.00;;;23.30;66.70;;;;;;1853423;77;21016;-52
2021/06/14 05:04:13;;;;;;;4.37;3.98;;;23.40;66.60;;;;;;1853442;77;21052;-52
2021/06/14 05:06:42;;;;;;;5.28;4.40;;;23.50;66.30;;;;;;1853397;77;21039;-52
2021/06/14 05:09:12;;;;;;;4.45;4.05;;;23.50;66.00;;;;;;1853453;77;21015;-51
2021/06/14 05:11:41;;;;;;;13.43;4.22;;;23.50;65.80;;;;;;1853425;77;21175;-52
2021/06/14 05:14:11;;;;;;;7.67;4.10;;;23.60;65.90;;;;;;1853563;77;21052;-52
2021/06/14 05:16:40;;;;;;;7.83;4.05;;;23.60;65.70;;;;;;1853520;77;21105;-50
2021/06/14 05:19:10;;;;;;;4.12;3.72;;;23.70;65.80;;;;;;1853327;77;21101;-53
2021/06/14 05:21:39;;;;;;;4.08;3.65;;;23.80;65.60;;;;;;1855869;77;21123;-51
2021/06/14 05:24:09;;;;;;;5.85;3.50;;;23.90;65.30;;;;;;1904911;75;21482;-52
2021/06/14 05:26:38;;;;;;;8.20;4.05;;;24.00;65.30;;;;;;1905033;75;21450;-53
2021/06/14 05:29:08;;;;;;;15.55;3.90;;;24.10;64.90;;;;;;1904880;74;21031;-51
2021/06/14 05:31:38;;;;;;;6.90;5.15;;;24.20;64.50;;;;;;1904736;75;21085;-52
2021/06/14 05:34:08;;;;;;;9.00;4.70;;;24.20;64.40;;;;;;1904920;75;21015;-52
2021/06/14 05:36:38;;;;;;;6.78;4.55;;;24.30;64.30;;;;;;1904898;75;21024;-52
2021/06/14 05:39:07;;;;;;;6.90;3.85;;;24.30;64.00;;;;;;1904925;75;21093;-50
2021/06/14 05:41:37;;;;;;;5.72;4.33;;;24.30;63.90;;;;;;1904898;75;21071;-52
2021/06/14 05:44:06;;;;;;;6.28;4.97;;;24.40;64.00;;;;;;1905038;75;21046;-51
2021/06/14 05:46:36;;;;;;;9.13;7.33;;;24.40;63.70;;;;;;1904908;75;21023;-52
2021/06/14 05:49:05;;;;;;;7.65;4.80;;;24.40;63.30;;;;;;1905014;75;20999;-52
2021/06/14 05:51:35;;;;;;;9.30;4.30;;;24.30;63.60;;;;;;1905008;75;21447;-52
2021/06/14 05:54:04;;;;;;;28.87;11.70;;;24.20;63.60;;;;;;1905042;75;21027;-51
2021/06/14 05:56:34;;;;;;;7.40;4.30;;;24.10;63.80;;;;;;1904898;75;21089;-52
2021/06/14 05:59:05;;;;;;;44.70;21.77;;;24.10;64.60;;;;;;1904997;74;21051;-52
2021/06/14 06:01:34;;;;;;;18.70;9.93;;;24.10;64.10;;;;;;1904920;75;21098;-52
2021/06/14 06:04:04;;;;;;;6.78;5.33;;;24.10;64.40;;;;;;1904951;75;20995;-51
2021/06/14 06:06:33;;;;;;;12.05;6.20;;;24.10;64.40;;;;;;1904952;75;21020;-51
2021/06/14 06:09:02;;;;;;;7.75;5.03;;;24.00;64.20;;;;;;1904974;74;21019;-51
2021/06/14 06:11:32;;;;;;;5.17;3.98;;;23.90;65.10;;;;;;1904924;75;21094;-51
2021/06/14 06:14:02;;;;;;;7.60;4.85;;;23.90;64.90;;;;;;1904958;75;21027;-52
2021/06/14 06:16:31;;;;;;;7.03;4.87;;;24.00;65.00;;;;;;1904909;75;21015;-51
2021/06/14 06:19:01;;;;;;;5.78;4.67;;;24.00;65.00;;;;;;1904997;75;21090;-53
2021/06/14 06:21:30;;;;;;;6.70;4.58;;;23.90;65.10;;;;;;1913629;75;21050;-51
2021/06/14 06:24:00;;;;;;;8.88;5.37;;;23.90;65.20;;;;;;1881654;76;21057;-52
2021/06/14 06:26:30;;;;;;;38.53;18.07;;;24.00;65.50;;;;;;1918287;75;21027;-51
2021/06/14 06:28:59;;;;;;;6.17;4.67;;;24.20;65.40;;;;;;1918164;75;21105;-53
2021/06/14 06:31:28;;;;;;;4.53;4.05;;;24.50;65.10;;;;;;1881598;76;21104;-51
2021/06/14 06:33:58;;;;;;;8.48;4.97;;;24.60;64.50;;;;;;1918224;75;21007;-51
2021/06/14 06:36:28;;;;;;;11.43;6.95;;;24.60;64.40;;;;;;1881397;75;21467;-50
2021/06/14 06:38:57;;;;;;;9.18;5.62;;;24.70;64.70;;;;;;1917991;74;21070;-50
2021/06/14 06:41:26;;;;;;;8.58;4.80;;;24.70;64.60;;;;;;1881343;75;21114;-50
2021/06/14 06:43:55;;;;;;;5.20;4.62;;;24.80;64.60;;;;;;1918059;74;21015;-52
2021/06/14 06:46:25;;;;;;;23.02;5.60;;;24.90;64.70;;;;;;1881377;76;21013;-51
2021/06/14 06:48:54;;;;;;;5.55;4.62;;;24.90;64.60;;;;;;1918023;75;21014;-51
2021/06/14 06:51:24;;;;;;;7.40;6.12;;;24.90;64.20;;;;;;1918031;75;21007;-51
2021/06/14 06:54:10;;;;;;;8.48;5.03;;;24.90;64.50;;;;;;1881470;75;21081;-52
2021/06/14 06:56:24;;;;;;;5.40;4.50;;;25.00;64.40;;;;;;1915701;74;21023;-49
2021/06/14 06:58:53;;;;;;;7.03;4.85;;;25.10;63.90;;;;;;1881616;76;21075;-52
2021/06/14 07:01:23;;;;;;;7.17;4.97;;;25.20;64.00;;;;;;1918166;73;21021;-51
2021/06/14 07:03:53;;;;;;;6.10;4.67;;;25.40;63.70;;;;;;1881641;76;21026;-52
2021/06/14 07:06:22;;;;;;;6.78;5.92;;;25.40;63.30;;;;;;1918187;74;21127;-52
2021/06/14 07:08:51;;;;;;;6.10;5.50;;;25.40;63.40;;;;;;1918331;74;21096;-51
2021/06/14 07:11:20;;;;;;;6.75;5.45;;;25.40;63.80;;;;;;1881742;76;21084;-53
2021/06/14 07:13:50;;;;;;;6.58;5.28;;;25.50;63.60;;;;;;1918227;74;21092;-52
2021/06/14 07:16:19;;;;;;;4.95;4.33;;;25.60;63.50;;;;;;1918223;75;21084;-52
2021/06/14 07:18:49;;;;;;;11.60;4.58;;;25.70;63.30;;;;;;1881682;76;21073;-52
2021/06/14 07:21:19;;;;;;;10.45;4.80;;;25.80;63.20;;;;;;1914290;75;21059;-51
2021/06/14 07:23:48;;;;;;;6.12;5.53;;;26.00;62.80;;;;;;1904803;75;21023;-52
2021/06/14 07:26:18;;;;;;;15.72;10.00;;;26.10;62.70;;;;;;1904932;75;21062;-52
2021/06/14 07:28:47;;;;;;;9.90;7.92;;;26.10;62.30;;;;;;1904713;75;21015;-52
2021/06/14 07:31:17;;;;;;;7.90;5.17;;;26.20;62.40;;;;;;1904692;75;21039;-52
2021/06/14 07:33:47;;;;;;;7.67;4.28;;;26.30;62.40;;;;;;1904858;75;21023;-52
2021/06/14 07:36:17;;;;;;;11.68;5.35;;;26.40;61.80;;;;;;1904965;75;21011;-51
2021/06/14 07:38:46;;;;;;;5.53;4.67;;;26.40;61.90;;;;;;1904808;74;20995;-53
2021/06/14 07:41:16;;;;;;;6.47;5.33;;;26.40;61.60;;;;;;1904772;75;21008;-51
2021/06/14 07:43:45;;;;;;;9.78;5.42;;;26.50;61.40;;;;;;1904917;75;20992;-52
2021/06/14 07:46:15;;;;;;;5.95;4.40;;;26.60;61.40;;;;;;1904943;74;21019;-51
2021/06/14 07:48:44;;;;;;;5.05;4.55;;;26.70;61.00;;;;;;1904891;75;20999;-52
2021/06/14 07:51:14;;;;;;;6.85;4.50;;;26.80;60.50;;;;;;1904859;75;21031;-50
2021/06/14 07:53:49;;;;;;;6.33;4.65;;;26.70;60.10;;;;;;1904854;75;20999;-51
2021/06/14 07:56:14;;;;;;;7.53;4.90;;;26.60;60.40;;;;;;1904597;74;21069;-52
2021/06/14 07:58:43;;;;;;;9.33;5.42;;;26.50;60.60;;;;;;1904911;75;20992;-51
2021/06/14 08:01:13;;;;;;;6.92;5.40;;;26.40;60.90;;;;;;1904946;75;21018;-52
2021/06/14 08:03:42;;;;;;;5.72;4.15;;;26.30;61.40;;;;;;1904925;75;21020;-52
2021/06/14 08:06:12;;;;;;;7.55;4.60;;;26.30;61.30;;;;;;1904959;75;21024;-52
2021/06/14 08:08:42;;;;;;;6.28;4.03;;;26.20;61.60;;;;;;1904865;75;21085;-52
2021/06/14 08:11:11;;;;;;;6.22;4.30;;;26.20;61.70;;;;;;1904853;74;21081;-51
2021/06/14 08:13:42;;;;;;;10.93;4.65;;;26.10;61.50;;;;;;1904894;75;21024;-54
2021/06/14 08:16:11;;;;;;;5.97;4.25;;;26.10;61.80;;;;;;1904910;74;21031;-50
2021/06/14 08:18:46;;;;;;;7.85;4.50;;;26.20;61.70;;;;;;1904686;75;21019;-52
2021/06/14 08:21:30;;;;;;;4.40;4.10;;;26.30;61.80;;;;;;1905263;75;20987;-51
2021/06/14 08:26:32;;;;;;;19.98;6.83;;;26.50;61.10;;;;;;1767094;81;21115;-52
2021/06/14 08:29:02;;;;;;;14.38;5.12;;;26.40;60.90;;;;;;1905459;75;21069;-52
2021/06/14 08:31:33;;;;;;;13.83;6.42;;;26.30;61.10;;;;;;1905614;75;21000;-51
2021/06/14 08:34:03;;;;;;;6.60;5.05;;;26.20;61.40;;;;;;1905493;75;21023;-51
2021/06/14 08:36:33;;;;;;;4.95;4.45;;;26.20;61.50;;;;;;1869160;77;21018;-53
2021/06/14 08:39:03;;;;;;;5.42;4.55;;;26.20;61.60;;;;;;1853495;77;21435;-52
2021/06/14 08:41:33;;;;;;;6.50;5.80;;;26.20;61.80;;;;;;1853612;77;21043;-52
2021/06/14 08:44:02;;;;;;;9.00;4.47;;;26.30;61.50;;;;;;1853525;77;21043;-51
2021/06/14 08:46:32;;;;;;;7.53;5.67;;;26.40;61.40;;;;;;1853454;77;21040;-53
2021/06/14 08:49:01;;;;;;;11.38;5.03;;;26.50;61.50;;;;;;1853500;77;21114;-53
2021/06/14 08:51:31;;;;;;;6.40;5.42;;;26.60;61.20;;;;;;1853458;77;21087;-52
2021/06/14 08:54:01;;;;;;;10.50;4.92;;;26.70;61.20;;;;;;1853463;77;21052;-53
2021/06/14 08:56:31;;;;;;;8.88;6.08;;;26.90;61.20;;;;;;1853414;77;21016;-52
2021/06/14 08:59:00;;;;;;;7.60;4.83;;;27.10;61.00;;;;;;1853364;77;21039;-52
2021/06/14 09:01:31;;;;;;;6.50;4.45;;;27.20;60.20;;;;;;1853605;77;21036;-52
2021/06/14 09:04:01;;;;;;;6.83;4.37;;;27.30;59.70;;;;;;1853426;77;21504;-51
2021/06/14 09:06:30;;;;;;;6.30;4.37;;;27.40;59.70;;;;;;1853410;77;21040;-53
2021/06/14 09:09:02;;;;;;;6.33;4.70;;;27.50;59.80;;;;;;1853462;77;21047;-52
2021/06/14 09:11:33;;;;;;;6.53;4.25;;;27.60;59.60;;;;;;1853471;77;21060;-52
2021/06/14 09:14:04;;;;;;;7.03;4.35;;;27.50;59.40;;;;;;1853533;77;21048;-52
2021/06/14 09:16:33;;;;;;;10.35;4.60;;;27.50;59.50;;;;;;1852135;77;21487;-53
2021/06/14 09:19:03;;;;;;;6.25;4.22;;;27.60;58.90;;;;;;1853320;77;21028;-52
2021/06/14 09:21:32;;;;;;;5.33;4.83;;;27.60;58.70;;;;;;1853441;77;21098;-52
2021/06/14 09:24:05;;;;;;;7.00;4.90;;;27.60;58.70;;;;;;1855383;77;21121;-51
2021/06/14 09:26:37;;;;;;;9.70;7.35;;;27.50;58.80;;;;;;1905010;75;21081;-52
2021/06/14 09:29:14;;;;;;;6.40;4.97;;;27.50;59.10;;;;;;1904876;75;21024;-53
2021/06/14 09:31:55;;;;;;;6.92;4.60;;;27.60;58.80;;;;;;1904937;75;21085;-52
2021/06/14 09:34:46;;;;;;;6.80;4.40;;;27.70;58.50;;;;;;1904803;75;21062;-52
2021/06/14 09:37:17;;;;;;;5.70;4.67;;;27.80;58.50;;;;;;1904980;75;21035;-54
2021/06/14 09:39:49;;;;;;;12.40;5.80;;;28.00;58.70;;;;;;1904775;75;21007;-55
2021/06/14 09:42:20;;;;;;;6.42;5.45;;;28.10;58.50;;;;;;1904871;75;21075;-53
2021/06/14 09:44:51;;;;;;;5.35;4.67;;;28.10;57.40;;;;;;1904838;75;21003;-53
2021/06/14 09:47:21;;;;;;;6.58;4.47;;;28.00;57.20;;;;;;1904849;75;20999;-53
2021/06/14 09:49:59;;;;;;;6.08;4.92;;;27.90;57.30;;;;;;1904836;75;21077;-54
2021/06/14 09:52:29;;;;;;;6.22;4.87;;;27.80;57.90;;;;;;1904823;74;21535;-52
2021/06/14 09:55:16;;;;;;;8.73;4.92;;;27.80;58.20;;;;;;1904789;75;21047;-53
2021/06/14 09:57:43;;;;;;;6.45;4.75;;;27.70;58.30;;;;;;1905047;74;21450;-52
2021/06/14 10:00:18;;;;;;;7.58;4.53;;;27.70;58.20;;;;;;1868597;77;21027;-52
2021/06/14 10:02:47;;;;;;;5.50;4.37;;;27.70;58.40;;;;;;1905075;75;21019;-53
2021/06/14 10:05:21;;;;;;;5.65;4.65;;;27.80;58.20;;;;;;1905078;75;21023;-53
2021/06/14 10:07:53;;;;;;;4.97;4.28;;;27.80;58.50;;;;;;1905050;74;21138;-52
2021/06/14 10:10:25;;;;;;;5.25;4.75;;;27.90;58.40;;;;;;1905051;74;21080;-52
2021/06/14 10:12:59;;;;;;;8.78;5.70;;;28.00;58.00;;;;;;1904919;75;21114;-53
2021/06/14 10:15:33;;;;;;;5.87;4.80;;;28.10;57.20;;;;;;1905180;75;21000;-53
2021/06/14 10:18:04;;;;;;;6.90;4.45;;;28.00;56.90;;;;;;1905177;75;21032;-52
2021/06/14 10:20:36;;;;;;;6.53;4.30;;;28.00;57.20;;;;;;1904934;75;21027;-52
2021/06/14 10:23:05;;;;;;;7.55;4.55;;;28.00;57.60;;;;;;1904800;75;21486;-53
2021/06/14 10:25:36;;;;;;;6.62;4.72;;;28.20;57.10;;;;;;1904770;75;21016;-51
2021/06/14 10:28:06;;;;;;;23.12;7.22;;;28.30;56.90;;;;;;1904579;74;21019;-54
2021/06/14 10:30:37;;;;;;;5.40;4.62;;;28.40;56.80;;;;;;1904800;75;21012;-52
2021/06/14 10:33:07;;;;;;;5.30;4.40;;;28.50;56.40;;;;;;1904868;75;21038;-53
2021/06/14 10:35:38;;;;;;;6.28;4.75;;;28.60;55.90;;;;;;1904783;75;21031;-53
2021/06/14 10:38:08;;;;;;;4.40;3.98;;;28.70;55.30;;;;;;1904822;74;21019;-53
2021/06/14 10:40:37;;;;;;;4.33;3.98;;;28.70;55.70;;;;;;1904915;75;21019;-52
2021/06/14 10:43:07;;;;;;;4.45;4.05;;;28.80;55.20;;;;;;1904964;75;21051;-53
2021/06/14 10:45:36;;;;;;;5.53;4.47;;;28.90;55.20;;;;;;1904892;75;21070;-53
2021/06/14 10:48:10;;;;;;;14.78;3.80;;;29.00;54.70;;;;;;1904905;75;21015;-53
2021/06/14 10:50:38;;;;;;;4.80;3.50;;;29.00;54.40;;;;;;1904911;74;21490;-53
2021/06/14 10:53:08;;;;;;;7.22;3.83;;;29.10;54.00;;;;;;1904980;75;21078;-53
2021/06/14 10:55:40;;;;;;;5.55;3.35;;;29.20;54.20;;;;;;1904806;75;21011;-53
2021/06/14 10:58:17;;;;;;;4.50;3.60;;;29.30;53.70;;;;;;1904974;75;21043;-53
2021/06/14 11:00:48;;;;;;;4.80;3.92;;;29.30;53.60;;;;;;1903619;74;21469;-53
2021/06/14 11:03:17;;;;;;;3.85;3.47;;;29.30;53.40;;;;;;1904099;74;21023;-54
2021/06/14 11:05:48;;;;;;;4.33;3.90;;;29.10;53.60;;;;;;1904852;75;20995;-53
2021/06/14 11:08:22;;;;;;;16.32;4.62;;;29.00;53.70;;;;;;1904943;75;21078;-53
2021/06/14 11:10:53;;;;;;;3.98;3.60;;;28.90;54.50;;;;;;1905077;75;21039;-52
2021/06/14 11:13:22;;;;;;;14.53;6.70;;;28.90;54.30;;;;;;1904798;74;21097;-53
2021/06/14 11:15:55;;;;;;;5.22;3.37;;;29.00;54.40;;;;;;1904781;75;21011;-54
2021/06/14 11:18:26;;;;;;;4.72;3.45;;;29.10;54.20;;;;;;1904887;75;21096;-54
2021/06/14 11:21:09;;;;;;;6.35;3.60;;;29.20;53.70;;;;;;1904880;75;21085;-53
2021/06/14 11:23:40;;;;;;;10.35;4.40;;;29.30;53.70;;;;;;1907959;75;21067;-53
2021/06/14 11:26:11;;;;;;;4.97;3.35;;;29.40;53.60;;;;;;1918147;75;21128;-53
2021/06/14 11:28:43;;;;;;;4.08;3.55;;;29.40;53.40;;;;;;1881709;76;21033;-53
2021/06/14 11:31:21;;;;;;;3.25;3.02;;;29.40;52.70;;;;;;1917951;74;21089;-53
2021/06/14 11:33:51;;;;;;;3.20;2.77;;;29.40;53.00;;;;;;1918360;75;20995;-54
2021/06/14 11:36:23;;;;;;;4.05;3.22;;;29.40;52.80;;;;;;1881678;76;21139;-54
2021/06/14 11:38:55;;;;;;;7.35;2.65;;;29.50;52.40;;;;;;1918251;75;21032;-54
2021/06/14 11:41:29;;;;;;;7.80;2.87;;;29.60;51.90;;;;;;1881577;76;20994;-54
2021/06/14 11:44:30;;;;;;;5.25;3.60;;;29.70;51.60;;;;;;1918402;75;21552;-53
2021/06/14 11:47:02;;;;;;;5.00;2.90;;;29.80;51.50;;;;;;1917504;74;21102;-55
2021/06/14 11:49:34;;;;;;;6.00;2.62;;;29.70;51.00;;;;;;1915088;74;21035;-56
2021/06/14 11:52:05;;;;;;;4.60;3.35;;;29.70;50.80;;;;;;1881611;75;21084;-54
2021/06/14 11:54:35;;;;;;;5.28;3.37;;;29.70;50.60;;;;;;1916819;74;21128;-54
2021/06/14 11:57:04;;;;;;;2.83;2.52;;;29.70;50.60;;;;;;1881541;75;21022;-54
2021/06/14 11:59:35;;;;;;;4.85;3.08;;;29.70;50.00;;;;;;1918209;75;20991;-54
2021/06/14 12:02:06;;;;;;;7.08;3.00;;;29.70;50.40;;;;;;1881628;76;21018;-54
2021/06/14 12:04:36;;;;;;;3.75;2.83;;;29.80;50.50;;;;;;1916802;74;21085;-55
2021/06/14 12:07:05;;;;;;;10.08;3.12;;;29.90;50.10;;;;;;1881578;76;21026;-55
2021/06/14 12:09:37;;;;;;;4.70;3.33;;;30.00;50.10;;;;;;1918192;74;21081;-55
2021/06/14 12:12:07;;;;;;;10.05;3.95;;;30.00;50.10;;;;;;1918252;74;21129;-54
2021/06/14 12:14:37;;;;;;;5.83;5.17;;;29.90;50.40;;;;;;1918272;75;21047;-55
2021/06/14 12:17:08;;;;;;;4.15;3.17;;;29.80;50.60;;;;;;1918363;75;21030;-55
2021/06/14 12:19:41;;;;;;;4.42;3.75;;;29.80;50.30;;;;;;1881550;76;21018;-54
2021/06/14 12:22:11;;;;;;;3.10;2.80;;;29.90;50.20;;;;;;1918298;75;20995;-55
2021/06/14 12:24:41;;;;;;;5.95;3.30;;;29.90;49.80;;;;;;1876687;76;21054;-55
2021/06/14 12:27:11;;;;;;;3.35;3.05;;;29.90;49.70;;;;;;1904952;75;21027;-54
2021/06/14 12:29:40;;;;;;;3.35;2.90;;;30.00;49.80;;;;;;1904834;75;21019;-55
2021/06/14 12:32:15;;;;;;;5.20;3.15;;;30.10;49.60;;;;;;1904899;74;21059;-54
2021/06/14 12:34:46;;;;;;;4.28;2.98;;;30.10;49.60;;;;;;1904973;74;21012;-54
2021/06/14 12:37:21;;;;;;;5.55;3.55;;;30.10;49.90;;;;;;1904886;74;21019;-55
2021/06/14 12:40:05;;;;;;;4.55;3.85;;;30.00;50.00;;;;;;1904912;75;21106;-55
2021/06/14 12:42:36;;;;;;;3.63;3.27;;;30.00;50.40;;;;;;1905246;75;20984;-55
2021/06/14 12:45:19;;;;;;;6.92;3.67;;;30.00;50.30;;;;;;1904950;75;21095;-54
2021/06/14 12:47:57;;;;;;;5.25;3.72;;;30.10;50.10;;;;;;1904797;75;21085;-55
2021/06/14 12:50:29;;;;;;;5.40;4.10;;;30.20;50.10;;;;;;1904834;75;21496;-54
2021/06/14 12:52:59;;;;;;;4.95;4.15;;;30.30;50.30;;;;;;1904860;75;21085;-54
2021/06/14 12:55:31;;;;;;;5.28;3.27;;;30.30;50.00;;;;;;1904982;75;21023;-54
2021/06/14 12:58:03;;;;;;;84.32;75.72;;;30.50;50.20;;;;;;1866834;77;21034;-54
2021/06/14 13:00:35;;;;;;;43.68;39.40;;;30.50;50.40;;;;;;1904913;74;21504;-52
2021/06/14 13:03:05;;;;;;;11.78;10.03;;;30.50;50.70;;;;;;1904988;75;21477;-54
2021/06/14 13:05:38;;;;;;;16.00;14.30;;;30.40;50.70;;;;;;1905134;75;21089;-54
2021/06/14 13:08:10;;;;;;;12.00;10.88;;;30.20;50.70;;;;;;1904832;75;21093;-54